Time;durP1;ratioP1;P1;durP2;ratioP2;P2;SDS_P1;SDS_P2;PMS_P1;PMS_P2;Temp;Humidity;BMP_temperature;BMP_pressure;BME280_temperature;BME280_humidity;BME280_pressure;Samples;Min_cycle;Max_cycle;Signal;HPM_P1;HPM_P2
2022/01/13 00:01:24;;;;;;;35.80;22.92;;;0.20;99.90;;;;;;5056327;28;20197;-72
2022/01/13 00:03:51;;;;;;;31.73;22.45;;;0.10;99.90;;;;;;5056506;28;20201;-72
2022/01/13 00:06:17;;;;;;;38.40;24.63;;;0.10;99.90;;;;;;5057397;28;20695;-72
2022/01/13 00:08:46;;;;;;;35.88;22.60;;;0.10;99.90;;;;;;5056190;28;20197;-73
2022/01/13 00:11:12;;;;;;;31.45;23.50;;;0.10;99.90;;;;;;5057519;28;20199;-72
2022/01/13 00:14:08;;;;;;;37.22;23.33;;;0.10;99.90;;;;;;5056125;28;20686;-71
2022/01/13 00:19:21;;;;;;;35.15;22.58;;;0.00;99.90;;;;;;5056491;28;20200;-72
2022/01/13 00:21:52;;;;;;;32.55;22.70;;;0.00;99.90;;;;;;5056940;28;20181;-71
2022/01/13 00:24:18;;;;;;;35.20;22.05;;;0.00;99.90;;;;;;5056852;28;20287;-72
2022/01/13 00:26:48;;;;;;;33.88;21.80;;;0.00;99.90;;;;;;5055982;28;20221;-72
2022/01/13 00:29:24;;;;;;;27.30;19.73;;;0.00;99.90;;;;;;5057199;28;20334;-72
2022/01/13 00:31:51;;;;;;;33.50;21.42;;;0.00;99.90;;;;;;5057054;28;20176;-72
2022/01/13 00:34:18;;;;;;;35.40;22.70;;;0.00;99.90;;;;;;5056655;28;20248;-73
2022/01/13 00:36:47;;;;;;;33.70;21.85;;;-0.10;99.90;;;;;;5057109;28;20208;-72
2022/01/13 00:39:14;;;;;;;38.58;23.75;;;-0.10;99.90;;;;;;5056468;28;20283;-72
2022/01/13 00:41:43;;;;;;;30.27;20.77;;;-0.10;99.90;;;;;;5055010;28;20189;-71
2022/01/13 00:44:10;;;;;;;32.90;22.08;;;-0.10;99.90;;;;;;5055695;28;20321;-73
2022/01/13 00:46:46;;;;;;;33.60;20.90;;;-0.10;99.90;;;;;;5055840;28;20684;-72
2022/01/13 00:49:13;;;;;;;35.22;21.33;;;-0.10;99.90;;;;;;5056182;28;20196;-72
2022/01/13 00:51:40;;;;;;;31.13;22.83;;;-0.20;99.90;;;;;;5056225;28;20354;-70
2022/01/13 00:54:08;;;;;;;37.42;23.92;;;-0.20;99.90;;;;;;5056350;28;20177;-71
2022/01/13 00:56:36;;;;;;;35.75;23.73;;;-0.20;99.90;;;;;;5056266;28;20204;-72
2022/01/13 00:59:07;;;;;;;35.75;22.02;;;-0.20;99.90;;;;;;5056589;28;20610;-71
2022/01/13 01:01:39;;;;;;;35.50;22.52;;;-0.20;99.90;;;;;;5056686;28;20196;-72
2022/01/13 01:04:06;;;;;;;37.05;23.42;;;-0.20;99.90;;;;;;5060308;28;20248;-73
2022/01/13 01:06:33;;;;;;;34.75;23.65;;;-0.20;99.90;;;;;;5059878;28;20228;-71
2022/01/13 01:09:04;;;;;;;31.85;22.92;;;-0.30;99.90;;;;;;5059860;28;20201;-71
2022/01/13 01:11:31;;;;;;;36.05;23.63;;;-0.30;99.90;;;;;;5060327;28;20254;-71
2022/01/13 01:14:00;;;;;;;34.13;23.55;;;-0.20;99.90;;;;;;5058494;28;20201;-72
2022/01/13 01:16:36;;;;;;;33.03;22.58;;;-0.20;99.90;;;;;;5060473;28;20704;-72
2022/01/13 01:19:07;;;;;;;36.22;23.60;;;-0.20;99.90;;;;;;5060054;28;20267;-70
2022/01/13 01:22:03;;;;;;;35.38;23.38;;;-0.20;99.90;;;;;;5058662;28;20727;-72
2022/01/13 01:24:53;;;;;;;34.15;21.70;;;-0.30;99.90;;;;;;5059358;28;20259;-71
2022/01/13 01:27:18;;;;;;;31.00;21.73;;;-0.30;99.90;;;;;;5059566;28;20227;-71
2022/01/13 01:29:53;;;;;;;31.92;20.80;;;-0.30;99.90;;;;;;5059696;28;20699;-71
2022/01/13 01:32:20;;;;;;;36.47;23.17;;;-0.30;99.90;;;;;;5059775;28;20294;-72
2022/01/13 01:34:55;;;;;;;30.20;21.10;;;-0.30;99.90;;;;;;5059768;28;20659;-72
2022/01/13 01:37:24;;;;;;;34.95;21.55;;;-0.30;99.90;;;;;;5059726;28;20711;-72
2022/01/13 01:39:51;;;;;;;39.08;24.10;;;-0.30;99.90;;;;;;5059709;28;20204;-70
2022/01/13 01:42:19;;;;;;;40.25;24.73;;;-0.30;99.90;;;;;;5059617;28;20212;-70
2022/01/13 01:44:47;;;;;;;41.38;23.35;;;-0.30;99.90;;;;;;5058296;28;20212;-71
2022/01/13 01:47:16;;;;;;;38.60;23.58;;;-0.30;99.90;;;;;;5058939;28;20717;-71
2022/01/13 01:49:46;;;;;;;34.17;23.58;;;-0.30;99.90;;;;;;5059078;28;20193;-72
2022/01/13 01:52:16;;;;;;;34.67;22.35;;;-0.30;99.90;;;;;;5058776;28;20228;-71
2022/01/13 01:54:42;;;;;;;34.70;21.85;;;-0.40;99.90;;;;;;5058936;28;20197;-73
2022/01/13 01:57:09;;;;;;;32.90;23.05;;;-0.50;99.90;;;;;;5058885;28;20201;-72
2022/01/13 01:59:38;;;;;;;34.72;22.92;;;-0.50;99.90;;;;;;5058635;28;20205;-72
2022/01/13 02:02:06;;;;;;;32.15;23.13;;;-0.50;99.90;;;;;;5056196;28;20219;-70
2022/01/13 02:04:33;;;;;;;38.50;22.15;;;-0.50;99.90;;;;;;5057211;28;20212;-70
2022/01/13 02:07:03;;;;;;;35.58;22.35;;;-0.50;99.90;;;;;;5057130;28;20225;-71
2022/01/13 02:09:29;;;;;;;32.20;21.45;;;-0.50;99.90;;;;;;5056808;28;20211;-70
2022/01/13 02:12:02;;;;;;;35.17;22.42;;;-0.50;99.90;;;;;;5056403;28;20204;-70
2022/01/13 02:16:59;;;;;;;30.75;21.88;;;-0.50;99.90;;;;;;5056649;28;20204;-71
2022/01/13 02:19:26;;;;;;;35.53;22.30;;;-0.50;99.90;;;;;;5056493;28;20625;-70
2022/01/13 02:21:53;;;;;;;30.20;21.75;;;-0.60;99.90;;;;;;5056421;28;20192;-71
2022/01/13 02:24:19;;;;;;;33.25;22.50;;;-0.60;99.90;;;;;;5056938;28;20226;-71
2022/01/13 02:26:46;;;;;;;33.08;21.95;;;-0.50;99.90;;;;;;5054868;28;20232;-71
2022/01/13 02:29:12;;;;;;;32.30;21.50;;;-0.50;99.90;;;;;;5057008;28;20227;-70
2022/01/13 02:31:39;;;;;;;29.58;21.80;;;-0.50;99.90;;;;;;5055591;28;20560;-70
2022/01/13 02:34:05;;;;;;;36.78;23.10;;;-0.60;99.90;;;;;;5056586;28;20588;-70
2022/01/13 02:36:32;;;;;;;31.70;20.80;;;-0.60;99.90;;;;;;5056324;28;20201;-70
2022/01/13 02:39:00;;;;;;;31.10;21.75;;;-0.70;99.90;;;;;;5055795;28;20209;-70
2022/01/13 02:41:27;;;;;;;37.25;21.85;;;-0.70;99.90;;;;;;5055702;28;20204;-71
2022/01/13 02:43:58;;;;;;;29.83;21.55;;;-0.70;99.90;;;;;;5056036;28;20212;-71
2022/01/13 02:49:09;;;;;;;33.40;22.25;;;-0.80;99.90;;;;;;5056121;28;20195;-70
2022/01/13 02:51:37;;;;;;;32.42;20.02;;;-0.80;99.90;;;;;;5056002;28;20188;-70
2022/01/13 02:54:05;;;;;;;33.50;20.50;;;-0.80;99.90;;;;;;5053988;28;20269;-71
2022/01/13 02:56:31;;;;;;;34.30;20.75;;;-0.70;99.90;;;;;;5055642;28;20289;-70
2022/01/13 02:58:58;;;;;;;32.67;18.10;;;-0.60;99.90;;;;;;5055788;28;20235;-71
2022/01/13 03:01:25;;;;;;;32.08;20.42;;;-0.60;99.90;;;;;;5055445;28;20223;-70
2022/01/13 03:03:52;;;;;;;31.50;19.95;;;-0.60;99.90;;;;;;5054891;28;20205;-71
2022/01/13 03:06:34;;;;;;;29.63;20.02;;;-0.60;99.90;;;;;;5055070;28;20228;-70
2022/01/13 03:09:04;;;;;;;30.42;19.38;;;-0.60;99.90;;;;;;5055536;28;20184;-70
2022/01/13 03:11:36;;;;;;;34.75;22.67;;;-0.60;99.90;;;;;;5055045;28;20732;-70
2022/01/13 03:14:11;;;;;;;32.88;21.27;;;-0.60;99.90;;;;;;5055699;28;20254;-70
2022/01/13 03:16:42;;;;;;;32.70;20.38;;;-0.60;99.90;;;;;;5055234;28;20184;-70
2022/01/13 03:19:10;;;;;;;38.40;21.45;;;-0.60;99.90;;;;;;5054853;28;20204;-70
2022/01/13 03:21:37;;;;;;;37.33;21.67;;;-0.60;99.90;;;;;;5055112;28;20211;-69
2022/01/13 03:24:08;;;;;;;27.85;20.17;;;-0.60;99.90;;;;;;5054959;28;20258;-70
2022/01/13 03:26:35;;;;;;;33.15;22.85;;;-0.60;99.90;;;;;;5054943;28;20679;-70
2022/01/13 03:29:15;;;;;;;31.58;21.25;;;-0.70;99.90;;;;;;5054699;28;20585;-70
2022/01/13 03:31:44;;;;;;;36.75;21.38;;;-0.70;99.90;;;;;;5054611;28;20201;-70
2022/01/13 03:34:13;;;;;;;30.48;20.05;;;-0.70;99.90;;;;;;5054574;28;20213;-70
2022/01/13 03:36:43;;;;;;;37.13;21.45;;;-0.70;99.90;;;;;;5054104;28;20216;-70
2022/01/13 03:39:12;;;;;;;37.15;22.00;;;-0.70;99.90;;;;;;5052839;28;20208;-71
2022/01/13 03:41:39;;;;;;;37.72;22.58;;;-0.80;99.90;;;;;;5054734;28;20203;-71
2022/01/13 03:44:15;;;;;;;34.08;21.80;;;-0.70;99.90;;;;;;5054436;28;20207;-71
2022/01/13 03:46:42;;;;;;;40.17;21.23;;;-0.70;99.90;;;;;;5054611;28;20537;-71
2022/01/13 03:49:09;;;;;;;39.67;22.50;;;-0.70;99.90;;;;;;5054277;28;20568;-71
2022/01/13 03:52:22;;;;;;;33.55;21.77;;;-0.70;99.90;;;;;;5053087;28;20200;-71
2022/01/13 03:55:23;;;;;;;37.45;22.35;;;-0.70;99.90;;;;;;5037807;28;20202;-71
2022/01/13 03:58:17;;;;;;;35.67;21.85;;;-0.70;99.90;;;;;;5054188;28;20653;-71
2022/01/13 04:01:09;;;;;;;41.45;22.33;;;-0.70;99.90;;;;;;5054498;28;20224;-71
2022/01/13 04:03:38;;;;;;;39.88;22.77;;;-0.70;99.90;;;;;;5054528;28;20214;-71
2022/01/13 04:06:14;;;;;;;37.97;22.95;;;-0.60;99.90;;;;;;5053896;28;20599;-71
2022/01/13 04:08:40;;;;;;;37.78;22.85;;;-0.60;99.90;;;;;;5053614;28;20695;-70
2022/01/13 04:11:07;;;;;;;36.80;22.10;;;-0.70;99.90;;;;;;5053892;28;20256;-70
2022/01/13 04:16:12;;;;;;;41.78;23.92;;;-0.70;99.90;;;;;;5054160;28;20216;-71
2022/01/13 04:18:38;;;;;;;36.13;24.05;;;-0.70;99.90;;;;;;5053716;28;20215;-70
2022/01/13 04:21:05;;;;;;;42.40;25.00;;;-0.70;99.90;;;;;;5053920;28;20680;-70
2022/01/13 04:23:33;;;;;;;44.65;24.17;;;-0.70;99.90;;;;;;5054121;28;20204;-72
2022/01/13 04:26:04;;;;;;;41.05;23.10;;;-0.70;99.90;;;;;;5036094;28;20221;-70
2022/01/13 04:28:33;;;;;;;38.33;22.90;;;-0.80;99.90;;;;;;5054468;28;20201;-71
2022/01/13 04:31:02;;;;;;;41.03;23.80;;;-0.80;99.90;;;;;;5053913;28;20259;-71
2022/01/13 04:33:34;;;;;;;40.08;24.10;;;-0.80;99.90;;;;;;5054419;28;20262;-70
2022/01/13 04:36:02;;;;;;;45.55;25.35;;;-0.80;99.90;;;;;;5052637;28;20208;-69
2022/01/13 04:38:28;;;;;;;42.95;24.05;;;-0.80;99.90;;;;;;5056482;28;20204;-70
2022/01/13 04:40:56;;;;;;;43.13;23.52;;;-0.80;99.90;;;;;;5058248;28;20200;-70
2022/01/13 04:43:24;;;;;;;44.72;25.33;;;-0.80;99.90;;;;;;5058452;28;20201;-70
2022/01/13 04:45:51;;;;;;;41.45;25.05;;;-0.80;99.90;;;;;;5058242;28;20208;-70
2022/01/13 04:48:18;;;;;;;44.80;24.45;;;-0.80;99.90;;;;;;5057868;28;20313;-70
2022/01/13 04:50:45;;;;;;;51.47;27.67;;;-0.80;99.90;;;;;;5057781;28;20204;-69
2022/01/13 04:53:12;;;;;;;50.55;27.30;;;-0.80;99.90;;;;;;5057289;28;20240;-69
2022/01/13 04:55:39;;;;;;;49.53;29.73;;;-0.80;99.90;;;;;;5057275;28;20200;-69
2022/01/13 04:58:06;;;;;;;46.05;27.65;;;-0.80;99.90;;;;;;5057300;28;20254;-69
2022/01/13 05:00:34;;;;;;;53.35;27.85;;;-0.70;99.90;;;;;;5057228;28;20568;-69
2022/01/13 05:03:00;;;;;;;51.60;29.58;;;-0.70;99.90;;;;;;5057663;28;20205;-70
2022/01/13 05:05:27;;;;;;;47.50;29.10;;;-0.70;99.90;;;;;;5057347;28;20696;-71
2022/01/13 05:07:53;;;;;;;46.85;29.23;;;-0.60;99.90;;;;;;5058047;28;20216;-71
2022/01/13 05:10:20;;;;;;;46.97;29.15;;;-0.70;99.90;;;;;;5055516;28;20605;-72
2022/01/13 05:12:53;;;;;;;53.97;30.02;;;-0.70;99.90;;;;;;5057023;28;20196;-72
2022/01/13 05:15:23;;;;;;;49.53;29.48;;;-0.70;99.90;;;;;;5055638;28;20250;-72
2022/01/13 05:20:28;;;;;;;53.15;31.75;;;-0.70;99.90;;;;;;5057117;28;20208;-71
2022/01/13 05:22:55;;;;;;;58.58;29.48;;;-0.60;99.90;;;;;;5056755;28;20676;-71
2022/01/13 05:25:21;;;;;;;55.83;30.88;;;-0.70;99.90;;;;;;5056857;28;20201;-72
2022/01/13 05:27:48;;;;;;;59.50;33.70;;;-0.70;99.90;;;;;;5056525;28;20683;-72
2022/01/13 05:30:17;;;;;;;51.83;29.17;;;-0.60;99.90;;;;;;5056604;28;20641;-70
2022/01/13 05:32:45;;;;;;;57.88;31.55;;;-0.70;99.90;;;;;;5056676;28;20656;-72
2022/01/13 05:35:12;;;;;;;59.40;31.88;;;-0.70;99.90;;;;;;5056315;28;20731;-72
2022/01/13 05:37:39;;;;;;;54.25;31.55;;;-0.70;99.90;;;;;;5056830;28;20254;-71
2022/01/13 05:40:05;;;;;;;53.92;31.67;;;-0.70;99.90;;;;;;5056319;28;20200;-72
2022/01/13 05:42:32;;;;;;;57.58;31.88;;;-0.70;99.90;;;;;;5056215;28;20215;-72
2022/01/13 05:45:01;;;;;;;64.05;33.65;;;-0.70;99.90;;;;;;5056643;28;20215;-70
2022/01/13 05:47:28;;;;;;;60.60;33.70;;;-0.80;99.90;;;;;;5056411;28;20331;-71
2022/01/13 05:49:54;;;;;;;57.25;32.30;;;-0.80;99.90;;;;;;5055343;28;20212;-71
2022/01/13 05:52:20;;;;;;;68.32;34.55;;;-0.80;99.90;;;;;;5056104;28;20228;-72
2022/01/13 05:54:47;;;;;;;61.67;34.63;;;-0.80;99.90;;;;;;5056005;28;20200;-72
2022/01/13 05:57:13;;;;;;;60.13;32.30;;;-0.70;99.90;;;;;;5056266;28;20251;-72
2022/01/13 05:59:39;;;;;;;64.80;34.50;;;-0.70;99.90;;;;;;5054820;28;20545;-72
2022/01/13 06:02:06;;;;;;;59.67;32.72;;;-0.80;99.90;;;;;;5056180;28;20200;-72
2022/01/13 06:04:32;;;;;;;52.45;31.70;;;-0.80;99.90;;;;;;5056703;28;20205;-71
2022/01/13 06:06:59;;;;;;;59.92;35.47;;;-0.80;99.90;;;;;;5056541;28;20628;-71
2022/01/13 06:09:25;;;;;;;58.58;32.60;;;-0.80;99.90;;;;;;5056521;28;20212;-71
2022/01/13 06:11:57;;;;;;;65.82;36.08;;;-0.80;99.90;;;;;;5056175;28;20201;-71
2022/01/13 06:14:24;;;;;;;71.45;36.72;;;-0.90;99.90;;;;;;5059191;28;20193;-71
2022/01/13 06:16:50;;;;;;;57.60;31.60;;;-0.80;99.90;;;;;;5058638;28;20578;-71
2022/01/13 06:19:16;;;;;;;65.63;34.30;;;-0.80;99.90;;;;;;5057761;28;20201;-71
2022/01/13 06:21:43;;;;;;;73.85;36.28;;;-0.80;99.90;;;;;;5057646;28;20196;-71
2022/01/13 06:24:09;;;;;;;64.88;35.63;;;-0.70;99.90;;;;;;5056420;28;20197;-72
2022/01/13 06:26:35;;;;;;;64.70;33.75;;;-0.80;99.90;;;;;;5055974;28;20216;-71
2022/01/13 06:29:02;;;;;;;63.65;36.38;;;-0.80;99.90;;;;;;5056442;28;20645;-71
2022/01/13 06:31:28;;;;;;;65.38;34.58;;;-0.70;99.90;;;;;;5055567;28;20200;-72
2022/01/13 06:33:54;;;;;;;61.80;33.58;;;-0.70;99.90;;;;;;5055704;28;20207;-72
2022/01/13 06:36:20;;;;;;;63.25;37.08;;;-0.70;99.90;;;;;;5055441;28;20204;-71
2022/01/13 06:38:48;;;;;;;70.45;35.85;;;-0.70;99.90;;;;;;5055691;28;20201;-71
2022/01/13 06:41:15;;;;;;;59.35;33.90;;;-0.70;99.90;;;;;;5054253;28;20209;-72
2022/01/13 06:43:42;;;;;;;67.70;35.95;;;-0.70;99.90;;;;;;5055867;28;20281;-72
2022/01/13 06:46:10;;;;;;;67.53;33.70;;;-0.70;99.90;;;;;;5055556;28;20201;-71
2022/01/13 06:48:36;;;;;;;65.32;35.55;;;-0.70;99.90;;;;;;5057242;28;20197;-72
2022/01/13 06:51:03;;;;;;;66.03;37.88;;;-0.70;99.90;;;;;;5056541;28;20192;-72
2022/01/13 06:53:29;;;;;;;61.78;33.40;;;-0.70;99.90;;;;;;5056107;28;20694;-72
2022/01/13 06:55:56;;;;;;;65.82;34.08;;;-0.60;99.90;;;;;;5055938;28;20637;-72
2022/01/13 06:58:22;;;;;;;70.60;36.22;;;-0.70;99.90;;;;;;5056277;28;20212;-72
2022/01/13 07:00:48;;;;;;;62.55;35.22;;;-0.60;99.90;;;;;;5055484;28;20201;-72
2022/01/13 07:03:15;;;;;;;67.45;34.00;;;-0.70;99.90;;;;;;5055131;28;20207;-72
2022/01/13 07:05:41;;;;;;;71.70;36.05;;;-0.70;99.90;;;;;;5055384;28;20725;-72
2022/01/13 07:08:11;;;;;;;62.67;35.10;;;-0.70;99.90;;;;;;5055473;28;20224;-72
2022/01/13 07:10:38;;;;;;;72.95;37.40;;;-0.80;99.90;;;;;;5066502;28;20226;-72
2022/01/13 07:13:04;;;;;;;68.30;36.60;;;-0.70;99.90;;;;;;5054826;28;20197;-72
2022/01/13 07:15:32;;;;;;;74.65;38.50;;;-0.80;99.90;;;;;;5054015;28;20200;-72
2022/01/13 07:17:59;;;;;;;74.30;37.80;;;-0.90;99.90;;;;;;5054638;28;20230;-72
2022/01/13 07:20:27;;;;;;;71.05;38.65;;;-0.90;99.90;;;;;;5055508;28;20211;-72
2022/01/13 07:22:54;;;;;;;69.80;36.40;;;-1.00;99.90;;;;;;5055371;28;20205;-71
2022/01/13 07:25:20;;;;;;;73.13;35.60;;;-1.00;99.90;;;;;;5055339;28;20205;-72
2022/01/13 07:27:47;;;;;;;77.20;40.03;;;-1.00;99.90;;;;;;5055796;28;20251;-71
2022/01/13 07:30:13;;;;;;;78.28;41.60;;;-0.90;99.90;;;;;;5055639;28;20649;-70
2022/01/13 07:32:40;;;;;;;87.38;44.08;;;-0.90;99.90;;;;;;5055816;28;20215;-71
2022/01/13 07:35:07;;;;;;;84.50;40.00;;;-1.00;99.90;;;;;;5056119;28;20205;-71
2022/01/13 07:37:34;;;;;;;74.95;38.03;;;-1.00;99.90;;;;;;5054934;28;20258;-69
2022/01/13 07:40:00;;;;;;;69.72;38.10;;;-1.00;99.90;;;;;;5054539;28;20205;-69
2022/01/13 07:42:28;;;;;;;90.75;42.55;;;-0.90;99.90;;;;;;5055993;28;20210;-70
2022/01/13 07:44:55;;;;;;;91.35;42.83;;;-0.90;99.90;;;;;;5037869;28;20212;-69
2022/01/13 07:47:21;;;;;;;82.45;41.55;;;-0.90;99.90;;;;;;5055201;28;20220;-70
2022/01/13 07:49:47;;;;;;;74.32;39.50;;;-0.90;99.90;;;;;;5055307;28;20298;-70
2022/01/13 07:52:14;;;;;;;74.68;37.85;;;-0.80;99.90;;;;;;5055239;28;20298;-69
2022/01/13 07:54:41;;;;;;;75.88;39.30;;;-0.80;99.90;;;;;;5055486;28;20201;-70
2022/01/13 07:57:07;;;;;;;79.05;40.50;;;-0.90;99.90;;;;;;5054942;28;20205;-70
2022/01/13 07:59:34;;;;;;;77.57;39.45;;;-0.80;99.90;;;;;;5055433;28;20204;-69
2022/01/13 08:02:00;;;;;;;107.13;44.80;;;-0.70;99.90;;;;;;5055839;28;20208;-70
2022/01/13 08:04:27;;;;;;;100.72;42.25;;;-0.70;99.90;;;;;;5054881;28;20204;-70
2022/01/13 08:06:53;;;;;;;117.57;46.55;;;-0.60;99.90;;;;;;5055409;28;20220;-71
2022/01/13 08:09:20;;;;;;;280.08;53.22;;;-0.60;99.90;;;;;;5058013;28;20205;-72
2022/01/13 08:11:46;;;;;;;251.38;48.13;;;-0.60;99.90;;;;;;5057473;28;20212;-72
2022/01/13 08:14:13;;;;;;;157.65;47.92;;;-0.60;99.90;;;;;;5052679;28;20196;-71
2022/01/13 08:16:43;;;;;;;224.10;50.95;;;-0.50;99.90;;;;;;5054681;28;20200;-72
2022/01/13 08:21:54;;;;;;;198.95;48.58;;;-0.40;99.90;;;;;;5053454;28;20237;-72
2022/01/13 08:24:21;;;;;;;218.48;49.33;;;-0.20;99.90;;;;;;5053559;28;20213;-72
2022/01/13 08:26:47;;;;;;;242.27;52.60;;;-0.10;99.90;;;;;;5053412;28;20220;-72
2022/01/13 08:29:14;;;;;;;288.33;51.95;;;-0.20;99.90;;;;;;5053819;28;20197;-72
2022/01/13 08:31:40;;;;;;;367.45;52.67;;;-0.20;99.90;;;;;;5053719;28;20578;-72
2022/01/13 08:34:07;;;;;;;469.58;71.63;;;-0.10;99.90;;;;;;5054280;28;20201;-72
2022/01/13 08:36:34;;;;;;;324.30;56.60;;;-0.20;99.90;;;;;;5053973;28;20204;-71
2022/01/13 08:39:00;;;;;;;370.20;52.00;;;-0.20;99.90;;;;;;5054246;28;20208;-71
2022/01/13 08:41:27;;;;;;;346.88;51.65;;;-0.30;99.90;;;;;;5054270;28;20209;-72
2022/01/13 08:43:55;;;;;;;260.60;49.05;;;-0.30;99.90;;;;;;5053061;28;20204;-72
2022/01/13 08:46:21;;;;;;;192.25;47.28;;;-0.10;99.90;;;;;;5054342;28;20193;-73
2022/01/13 08:48:48;;;;;;;204.05;45.80;;;0.00;99.90;;;;;;5054836;28;20621;-72
2022/01/13 08:51:17;;;;;;;233.25;48.80;;;0.10;99.90;;;;;;5054102;28;20201;-73
2022/01/13 08:53:43;;;;;;;183.48;42.67;;;0.10;99.90;;;;;;5053155;28;20201;-72
2022/01/13 08:56:10;;;;;;;217.98;45.67;;;0.00;99.90;;;;;;5054348;28;20203;-72
2022/01/13 08:58:36;;;;;;;185.55;45.05;;;-0.10;99.90;;;;;;5055080;28;20261;-72
2022/01/13 09:01:03;;;;;;;136.48;42.28;;;0.00;99.90;;;;;;5057473;28;20205;-72
2022/01/13 09:03:29;;;;;;;132.68;40.60;;;0.00;99.90;;;;;;5056437;28;20208;-72
2022/01/13 09:05:56;;;;;;;154.52;43.83;;;0.00;99.90;;;;;;5057901;28;20370;-72
2022/01/13 09:08:22;;;;;;;88.00;37.80;;;0.00;99.90;;;;;;5055474;28;20221;-72
2022/01/13 09:10:49;;;;;;;66.30;33.05;;;0.00;99.90;;;;;;5054549;28;20204;-72
2022/01/13 09:13:16;;;;;;;72.53;34.40;;;0.10;99.90;;;;;;5054823;28;20204;-72
2022/01/13 09:15:48;;;;;;;64.03;32.75;;;0.20;99.90;;;;;;5055184;28;20204;-72
2022/01/13 09:18:18;;;;;;;61.88;31.50;;;0.30;99.90;;;;;;5055328;28;20205;-71
2022/01/13 09:20:46;;;;;;;60.05;33.33;;;0.20;99.90;;;;;;5055041;28;20596;-70
2022/01/13 09:23:13;;;;;;;66.30;35.53;;;0.20;99.90;;;;;;5054152;28;20204;-70
2022/01/13 09:25:40;;;;;;;67.07;34.67;;;0.20;99.90;;;;;;5057440;28;20262;-70
2022/01/13 09:28:08;;;;;;;67.65;33.90;;;0.30;99.90;;;;;;5055997;28;20270;-70
2022/01/13 09:30:35;;;;;;;73.03;36.05;;;0.30;99.90;;;;;;5057139;28;20208;-70
2022/01/13 09:33:02;;;;;;;63.92;35.67;;;0.30;99.90;;;;;;5057804;28;20196;-72
2022/01/13 09:35:29;;;;;;;59.60;33.88;;;0.20;99.90;;;;;;5057594;28;20212;-73
2022/01/13 09:37:55;;;;;;;62.67;33.72;;;0.20;99.90;;;;;;5057406;28;20743;-72
2022/01/13 09:40:22;;;;;;;58.92;34.38;;;0.40;99.90;;;;;;5056705;28;20211;-72
2022/01/13 09:42:49;;;;;;;65.70;31.85;;;0.50;99.90;;;;;;5057925;28;20200;-72
2022/01/13 09:45:17;;;;;;;59.25;31.05;;;0.40;99.90;;;;;;5058163;28;20196;-72
2022/01/13 09:47:45;;;;;;;55.17;30.60;;;0.40;99.90;;;;;;5057324;28;20554;-73
2022/01/13 09:50:17;;;;;;;50.65;25.98;;;0.40;99.90;;;;;;5057950;28;20189;-73
2022/01/13 09:52:44;;;;;;;55.80;30.42;;;0.40;99.90;;;;;;5068143;28;20236;-72
2022/01/13 09:55:12;;;;;;;58.55;29.88;;;0.40;99.90;;;;;;5067925;28;20208;-73
2022/01/13 09:58:10;;;;;;;61.10;30.55;;;0.30;99.90;;;;;;5057071;28;20219;-72
2022/01/13 10:00:39;;;;;;;57.05;31.70;;;0.40;99.90;;;;;;5056280;28;20208;-73
2022/01/13 10:03:14;;;;;;;58.13;30.25;;;0.40;99.90;;;;;;5057442;28;20212;-73
2022/01/13 10:06:24;;;;;;;51.33;29.23;;;0.30;99.90;;;;;;5067134;28;20488;-73
2022/01/13 10:08:58;;;;;;;57.22;29.70;;;0.40;99.90;;;;;;5076434;28;20247;-73
2022/01/13 10:11:44;;;;;;;57.13;28.33;;;0.60;99.90;;;;;;5076000;28;20628;-73
2022/01/13 10:16:54;;;;;;;56.08;30.35;;;0.60;99.90;;;;;;5076946;28;20184;-73
2022/01/13 10:19:44;;;;;;;55.20;31.63;;;0.80;99.90;;;;;;5077193;28;20294;-73
2022/01/13 10:22:19;;;;;;;55.03;31.98;;;1.10;99.90;;;;;;5077728;28;20185;-73
2022/01/13 10:24:48;;;;;;;58.97;31.80;;;1.10;99.90;;;;;;5076882;28;20176;-73
2022/01/13 10:27:30;;;;;;;63.60;36.67;;;0.80;99.90;;;;;;5076659;28;20254;-71
2022/01/13 10:30:00;;;;;;;60.22;31.60;;;0.80;99.90;;;;;;5077446;28;20543;-70
2022/01/13 10:32:39;;;;;;;54.70;30.48;;;0.90;99.90;;;;;;5078461;28;20259;-72
2022/01/13 10:35:12;;;;;;;49.78;31.20;;;0.90;99.90;;;;;;5078108;28;20209;-71
2022/01/13 10:37:56;;;;;;;49.13;30.40;;;1.20;99.90;;;;;;5076361;28;20204;-71
2022/01/13 10:40:28;;;;;;;51.22;28.40;;;1.40;99.90;;;;;;5077628;28;20283;-70
2022/01/13 10:45:45;;;;;;;53.13;29.95;;;1.40;99.90;;;;;;5077634;28;20569;-71
2022/01/13 10:48:22;;;;;;;44.58;27.10;;;1.50;99.90;;;;;;5076440;28;20203;-70
2022/01/13 10:51:04;;;;;;;42.45;26.92;;;1.70;99.90;;;;;;5076712;28;20278;-71
2022/01/13 10:53:39;;;;;;;47.33;28.67;;;1.60;99.90;;;;;;5076072;28;20318;-70
2022/01/13 10:56:17;;;;;;;46.78;28.02;;;1.70;99.90;;;;;;5078370;28;20555;-70
2022/01/13 10:58:52;;;;;;;42.08;26.38;;;2.00;99.90;;;;;;5077447;28;20569;-69
2022/01/13 11:01:33;;;;;;;41.65;28.15;;;2.20;99.90;;;;;;5077301;28;20210;-71
2022/01/13 11:04:00;;;;;;;37.55;26.20;;;2.50;99.90;;;;;;5075676;28;20697;-70
2022/01/13 11:06:28;;;;;;;39.90;24.50;;;2.70;99.90;;;;;;5076025;28;20224;-69
2022/01/13 11:08:57;;;;;;;38.17;24.33;;;2.90;99.90;;;;;;5076867;28;20216;-71
2022/01/13 11:11:33;;;;;;;36.90;23.10;;;3.00;99.90;;;;;;5075810;28;20208;-72
2022/01/13 11:14:09;;;;;;;32.30;22.70;;;3.20;99.90;;;;;;5076305;28;20180;-69
2022/01/13 11:16:37;;;;;;;33.05;22.30;;;3.20;99.90;;;;;;5075738;28;20651;-70
2022/01/13 11:19:18;;;;;;;28.70;21.60;;;3.40;99.90;;;;;;5075698;28;20215;-73
2022/01/13 11:21:46;;;;;;;31.45;22.63;;;3.60;99.90;;;;;;5074698;28;20245;-71
2022/01/13 11:24:18;;;;;;;32.30;21.08;;;3.70;99.90;;;;;;5076556;28;20204;-74
2022/01/13 11:26:47;;;;;;;33.30;24.50;;;4.20;99.90;;;;;;5074798;28;20204;-74
2022/01/13 11:29:16;;;;;;;31.70;22.60;;;4.20;99.90;;;;;;5074729;28;20215;-71
2022/01/13 11:31:43;;;;;;;32.42;21.38;;;4.30;99.90;;;;;;5074447;28;20200;-71
2022/01/13 11:34:10;;;;;;;27.90;20.95;;;4.50;99.90;;;;;;5075845;28;20200;-72
2022/01/13 11:36:37;;;;;;;31.17;23.40;;;4.60;99.90;;;;;;5075458;28;20249;-71
2022/01/13 11:39:09;;;;;;;29.20;22.83;;;4.60;99.90;;;;;;5076279;28;20208;-72
2022/01/13 11:42:03;;;;;;;35.63;23.10;;;4.60;99.90;;;;;;5075483;28;20181;-71
2022/01/13 11:44:29;;;;;;;30.67;22.50;;;4.50;99.90;;;;;;5073851;28;20195;-71
2022/01/13 11:46:56;;;;;;;31.70;21.50;;;4.70;99.90;;;;;;5074022;28;20202;-71
2022/01/13 11:52:01;;;;;;;29.77;22.20;;;4.80;99.90;;;;;;5074752;28;20726;-71
2022/01/13 11:54:33;;;;;;;34.67;24.50;;;4.90;99.90;;;;;;5074725;28;20636;-71
2022/01/13 11:57:14;;;;;;;36.60;22.95;;;5.40;99.90;;;;;;5074910;28;20203;-71
2022/01/13 12:00:07;;;;;;;31.88;22.08;;;5.80;99.90;;;;;;5074675;28;20215;-71
2022/01/13 12:02:41;;;;;;;34.83;23.63;;;5.90;99.90;;;;;;5067015;28;20769;-71
2022/01/13 12:05:16;;;;;;;48.75;25.70;;;6.10;99.90;;;;;;5074839;28;20544;-71
2022/01/13 12:07:48;;;;;;;29.00;23.40;;;6.20;99.90;;;;;;5075737;28;20227;-70
2022/01/13 12:10:23;;;;;;;37.38;24.05;;;6.20;99.90;;;;;;5075085;28;20191;-70
2022/01/13 12:12:57;;;;;;;43.72;25.77;;;6.40;99.90;;;;;;5074387;28;20575;-71
2022/01/13 12:15:26;;;;;;;32.72;24.58;;;6.10;99.90;;;;;;5075871;28;20203;-70
2022/01/13 12:17:57;;;;;;;34.28;21.52;;;6.50;99.90;;;;;;5075559;28;20207;-71
2022/01/13 12:21:20;;;;;;;29.10;22.23;;;6.30;99.90;;;;;;5074580;28;20295;-70
2022/01/13 12:23:37;;;;;;;27.73;21.65;;;6.60;99.90;;;;;;5074549;28;20229;-70
2022/01/13 12:26:33;;;;;;;29.25;22.75;;;6.60;99.90;;;;;;5073900;28;20191;-71
2022/01/13 12:29:28;;;;;;;29.33;23.02;;;6.60;99.90;;;;;;5073629;28;20227;-71
2022/01/13 12:32:09;;;;;;;30.38;23.40;;;6.80;99.90;;;;;;5074895;28;20622;-72
2022/01/13 12:34:39;;;;;;;26.05;21.70;;;6.60;99.90;;;;;;5074968;28;20196;-70
2022/01/13 12:37:11;;;;;;;28.60;21.40;;;7.10;99.90;;;;;;5075711;28;20200;-70
2022/01/13 12:39:56;;;;;;;28.20;22.15;;;6.80;99.90;;;;;;5075339;28;20205;-71
2022/01/13 12:42:31;;;;;;;27.20;23.02;;;6.60;99.90;;;;;;5074976;28;20198;-71
2022/01/13 12:47:45;;;;;;;32.00;22.23;;;6.60;99.90;;;;;;5075230;28;20207;-70
2022/01/13 12:50:17;;;;;;;26.92;21.95;;;6.70;99.90;;;;;;5074803;28;20529;-70
2022/01/13 12:52:44;;;;;;;36.22;24.00;;;6.60;99.90;;;;;;5074473;28;20235;-70
2022/01/13 12:55:10;;;;;;;29.83;22.73;;;6.90;99.90;;;;;;5073388;28;20551;-70
2022/01/13 12:57:43;;;;;;;26.48;19.95;;;7.40;99.90;;;;;;5074855;28;20200;-71
2022/01/13 13:00:11;;;;;;;27.63;19.02;;;7.30;99.90;;;;;;5078052;28;20188;-71
2022/01/13 13:02:57;;;;;;;26.27;20.67;;;7.30;99.90;;;;;;5078149;28;20196;-69
2022/01/13 13:05:30;;;;;;;25.65;20.35;;;7.80;99.90;;;;;;5077991;28;20207;-70
2022/01/13 13:07:56;;;;;;;29.65;21.73;;;8.10;99.90;;;;;;5078349;28;20231;-72
2022/01/13 13:10:23;;;;;;;26.33;20.15;;;8.00;99.90;;;;;;5077680;28;20192;-72
2022/01/13 13:12:54;;;;;;;27.88;21.30;;;7.90;99.90;;;;;;5058996;28;20204;-71